createdAt,value
2022-10-23T00:00:31.992Z,10.48
2022-10-23T00:02:04.002Z,10.50
2022-10-23T00:03:35.909Z,10.51
2022-10-23T00:05:07.982Z,10.52
2022-10-23T00:06:40.093Z,10.53
2022-10-23T00:08:12.022Z,10.53
2022-10-23T00:09:43.922Z,10.52
2022-10-23T00:11:20.454Z,10.52
2022-10-23T00:12:52.632Z,10.49
2022-10-23T00:14:24.975Z,10.47
2022-10-23T00:15:56.858Z,10.43
2022-10-23T00:17:28.838Z,10.39
2022-10-23T00:19:00.742Z,10.35
2022-10-23T00:20:32.639Z,10.32
2022-10-23T00:22:04.498Z,10.29
2022-10-23T00:23:36.574Z,10.26
2022-10-23T00:25:09.094Z,10.21
2022-10-23T00:26:41.369Z,10.19
2022-10-23T00:28:13.281Z,10.16
2022-10-23T00:29:45.523Z,10.13
2022-10-23T00:31:18.022Z,10.11
2022-10-23T00:32:49.904Z,10.06
2022-10-23T00:34:21.742Z,10.04
2022-10-23T00:35:53.622Z,10.01
2022-10-23T00:37:26.626Z,9.96
2022-10-23T00:38:58.520Z,9.91
2022-10-23T00:40:30.509Z,9.86
2022-10-23T00:42:02.467Z,9.83
2022-10-23T00:43:34.955Z,9.80
2022-10-23T00:45:15.349Z,9.77
2022-10-23T00:46:47.175Z,9.76
2022-10-23T00:48:19.330Z,9.74
2022-10-23T00:49:51.338Z,9.74
2022-10-23T00:51:23.619Z,9.70
2022-10-23T00:52:56.276Z,9.66
2022-10-23T00:54:31.670Z,9.64
2022-10-23T00:56:03.983Z,9.64
2022-10-23T00:57:36.152Z,9.66
2022-10-23T00:59:08.097Z,9.64
2022-10-23T01:00:42.678Z,9.61
2022-10-23T01:02:15.176Z,9.56
2022-10-23T01:03:47.793Z,9.50
2022-10-23T01:05:21.457Z,9.44
2022-10-23T01:06:59.795Z,9.37
2022-10-23T01:08:45.466Z,9.30
2022-10-23T01:10:23.669Z,9.25
2022-10-23T01:12:02.527Z,9.21
2022-10-23T01:13:39.544Z,9.17
2022-10-23T01:15:31.292Z,9.14
2022-10-23T01:17:08.475Z,9.13
2022-10-23T01:18:48.570Z,9.12
2022-10-23T01:20:21.703Z,9.11
2022-10-23T01:21:53.552Z,9.09
2022-10-23T01:23:31.971Z,9.04
2022-10-23T01:25:05.024Z,9.01
2022-10-23T01:26:55.288Z,8.96
2022-10-23T01:28:32.283Z,8.91
2022-10-23T01:30:09.170Z,8.87
2022-10-23T01:31:50.408Z,8.85
2022-10-23T01:33:27.801Z,8.84
2022-10-23T01:34:59.803Z,8.83
2022-10-23T01:36:32.121Z,8.79
2022-10-23T01:38:10.631Z,8.76
2022-10-23T01:39:48.087Z,8.71
2022-10-23T01:41:24.452Z,8.68
2022-10-23T01:42:59.110Z,8.64
2022-10-23T01:44:41.626Z,8.61
2022-10-23T01:46:16.215Z,8.57
2022-10-23T01:47:48.355Z,8.56
2022-10-23T01:49:23.005Z,8.56
2022-10-23T01:51:04.549Z,8.55
2022-10-23T01:52:37.216Z,8.54
2022-10-23T01:54:13.197Z,8.54
2022-10-23T01:55:46.463Z,8.58
2022-10-23T01:57:26.210Z,8.63
2022-10-23T01:59:01.431Z,8.65
2022-10-23T02:00:38.845Z,8.66
2022-10-23T02:02:11.991Z,8.64
2022-10-23T02:03:47.635Z,8.62
2022-10-23T02:05:24.109Z,8.60
2022-10-23T02:06:56.464Z,8.59
2022-10-23T02:08:30.839Z,8.60
2022-10-23T02:10:05.050Z,8.62
2022-10-23T02:11:42.941Z,8.65
2022-10-23T02:13:14.813Z,8.70
2022-10-23T02:14:53.408Z,8.80
2022-10-23T02:16:28.110Z,8.85
2022-10-23T02:18:07.407Z,8.86
2022-10-23T02:19:48.409Z,8.88
2022-10-23T02:21:27.787Z,8.92
2022-10-23T02:23:01.174Z,8.91
2022-10-23T02:24:35.150Z,8.92
2022-10-23T02:26:11.677Z,8.94
2022-10-23T02:27:48.405Z,8.94
2022-10-23T02:29:26.578Z,8.92
2022-10-23T02:31:00.733Z,8.91
2022-10-23T02:32:33.770Z,8.92
2022-10-23T02:34:06.420Z,8.95
2022-10-23T02:35:38.302Z,8.96
2022-10-23T02:37:25.482Z,8.89
2022-10-23T02:38:58.377Z,8.83
2022-10-23T02:40:34.805Z,8.75
2022-10-23T02:42:20.489Z,8.70
2022-10-23T02:43:52.294Z,8.66
2022-10-23T02:45:26.941Z,8.66
2022-10-23T02:47:28.271Z,8.65
2022-10-23T02:49:24.045Z,8.61
2022-10-23T02:51:12.545Z,8.58
2022-10-23T02:52:55.112Z,8.59
2022-10-23T02:54:27.929Z,8.62
2022-10-23T02:56:23.155Z,8.68
2022-10-23T02:58:04.247Z,8.69
2022-10-23T02:59:40.341Z,8.69
2022-10-23T03:01:17.438Z,8.71
2022-10-23T03:02:49.649Z,8.75
2022-10-23T03:04:23.955Z,8.76
2022-10-23T03:05:55.970Z,8.75
2022-10-23T03:07:28.060Z,8.77
2022-10-23T03:09:08.893Z,8.76
2022-10-23T03:10:41.343Z,8.72
2022-10-23T03:12:13.466Z,8.70
2022-10-23T03:13:47.914Z,8.67
2022-10-23T03:15:19.904Z,8.62
2022-10-23T03:16:53.969Z,8.59
2022-10-23T03:18:26.075Z,8.58
2022-10-23T03:19:57.991Z,8.56
2022-10-23T03:21:29.912Z,8.52
2022-10-23T03:23:02.049Z,8.47
2022-10-23T03:24:34.019Z,8.43
2022-10-23T03:26:05.977Z,8.41
2022-10-23T03:27:43.027Z,8.37
2022-10-23T03:29:19.784Z,8.32
2022-10-23T03:30:51.992Z,8.30
2022-10-23T03:32:23.846Z,8.30
2022-10-23T03:33:55.768Z,8.29
2022-10-23T03:35:27.670Z,8.28
2022-10-23T03:36:59.555Z,8.34
2022-10-23T03:38:31.616Z,8.41
2022-10-23T03:40:04.197Z,8.49
2022-10-23T03:41:39.508Z,8.52
2022-10-23T03:43:11.590Z,8.50
2022-10-23T03:44:43.548Z,8.43
2022-10-23T03:46:15.402Z,8.36
2022-10-23T03:47:47.415Z,8.31
2022-10-23T03:49:19.391Z,8.26
2022-10-23T03:50:51.601Z,8.25
2022-10-23T03:53:56.426Z,8.24
2022-10-23T03:55:30.424Z,8.29
2022-10-23T03:57:02.390Z,8.29
2022-10-23T03:58:34.426Z,8.30
2022-10-23T04:00:07.094Z,8.34
2022-10-23T04:01:48.307Z,8.32
2022-10-23T04:03:20.361Z,8.30
2022-10-23T04:04:52.314Z,8.29
2022-10-23T04:06:24.457Z,8.26
2022-10-23T04:08:00.476Z,8.23
2022-10-23T04:09:32.634Z,8.24
2022-10-23T04:11:04.576Z,8.25
2022-10-23T04:12:46.699Z,8.24
2022-10-23T04:14:18.599Z,8.26
2022-10-23T04:15:51.469Z,8.25
2022-10-23T04:17:23.604Z,8.26
2022-10-23T04:18:55.571Z,8.29
2022-10-23T04:20:27.907Z,8.31
2022-10-23T04:21:59.796Z,8.35
2022-10-23T04:23:31.675Z,8.36
2022-10-23T04:25:03.656Z,8.35
2022-10-23T04:26:37.381Z,8.38
2022-10-23T04:28:09.271Z,8.39
2022-10-23T04:29:43.873Z,8.41
2022-10-23T04:31:15.973Z,8.43
2022-10-23T04:32:51.890Z,8.42
2022-10-23T04:34:23.888Z,8.43
2022-10-23T04:35:57.926Z,8.44
2022-10-23T04:37:29.823Z,8.45
2022-10-23T04:39:01.683Z,8.43
2022-10-23T04:40:33.658Z,8.44
2022-10-23T04:42:05.735Z,8.48
2022-10-23T04:43:37.653Z,8.49
2022-10-23T04:45:09.760Z,8.53
2022-10-23T04:46:41.602Z,8.55
2022-10-23T04:48:14.906Z,8.57
2022-10-23T04:50:19.754Z,8.61
2022-10-23T04:52:10.186Z,8.63
2022-10-23T04:53:54.237Z,8.66
2022-10-23T04:55:51.328Z,8.70
2022-10-23T04:57:28.669Z,8.72
2022-10-23T04:59:09.621Z,8.76
2022-10-23T05:00:43.931Z,8.81
2022-10-23T05:02:18.884Z,8.85
2022-10-23T05:03:54.148Z,8.89
2022-10-23T05:05:26.112Z,8.92
2022-10-23T05:07:29.146Z,8.95
2022-10-23T05:09:24.119Z,8.99
2022-10-23T05:11:04.541Z,9.00
2022-10-23T05:12:40.525Z,9.02
2022-10-23T05:14:13.214Z,9.06
2022-10-23T05:15:54.738Z,9.11
2022-10-23T05:17:32.505Z,9.14
2022-10-23T05:19:05.202Z,9.15
2022-10-23T05:20:37.852Z,9.17
2022-10-23T05:22:10.880Z,9.20
2022-10-23T05:23:55.543Z,9.21
2022-10-23T05:25:29.881Z,9.23
2022-10-23T05:27:13.825Z,9.24
2022-10-23T05:28:46.706Z,9.26
2022-10-23T05:30:21.872Z,9.28
2022-10-23T05:31:57.092Z,9.30
2022-10-23T05:33:32.613Z,9.31
2022-10-23T05:35:09.884Z,9.34
2022-10-23T05:36:42.217Z,9.37
2022-10-23T05:38:14.647Z,9.37
2022-10-23T05:39:47.355Z,9.41
2022-10-23T05:41:21.791Z,9.48
2022-10-23T05:42:53.873Z,9.47
2022-10-23T05:44:34.367Z,9.46
2022-10-23T05:46:25.009Z,9.47
2022-10-23T05:48:30.096Z,9.49
2022-10-23T05:50:28.954Z,9.51
2022-10-23T05:52:20.270Z,9.53
2022-10-23T05:54:09.672Z,9.55
2022-10-23T05:56:05.779Z,9.54
2022-10-23T05:57:57.876Z,9.54
2022-10-23T05:59:49.714Z,9.53
2022-10-23T06:01:30.811Z,9.55
2022-10-23T06:03:07.237Z,9.56
2022-10-23T06:04:45.210Z,9.64
2022-10-23T06:06:36.774Z,9.65
2022-10-23T06:08:08.855Z,9.61
2022-10-23T06:09:41.510Z,9.59
2022-10-23T06:11:14.777Z,9.61
2022-10-23T06:12:52.174Z,9.63
2022-10-23T06:14:24.105Z,9.64
2022-10-23T06:15:57.081Z,9.62
2022-10-23T06:17:30.931Z,9.64
2022-10-23T06:19:03.742Z,9.67
2022-10-23T06:20:37.277Z,9.72
2022-10-23T06:22:26.482Z,9.74
2022-10-23T06:24:08.009Z,9.76
2022-10-23T06:25:55.801Z,9.81
2022-10-23T06:27:35.946Z,9.77
2022-10-23T06:29:09.950Z,9.86
2022-10-23T06:30:43.122Z,9.84
2022-10-23T06:32:14.967Z,9.86
2022-10-23T06:33:56.330Z,9.87
2022-10-23T06:35:28.495Z,9.92
2022-10-23T06:37:00.557Z,9.91
2022-10-23T06:38:56.670Z,9.96
2022-10-23T06:40:41.971Z,9.89
2022-10-23T06:42:14.463Z,9.91
2022-10-23T06:44:10.390Z,9.97
2022-10-23T06:45:54.090Z,9.92
2022-10-23T06:47:58.451Z,9.93
2022-10-23T06:49:50.601Z,9.94
2022-10-23T06:51:22.567Z,10.00
2022-10-23T06:52:54.566Z,10.10
2022-10-23T06:54:27.495Z,10.10
2022-10-23T06:56:16.229Z,10.07
2022-10-23T06:57:48.670Z,10.11
2022-10-23T06:59:20.735Z,10.10
2022-10-23T07:00:55.580Z,10.16
2022-10-23T07:02:27.529Z,10.15
2022-10-23T07:03:59.690Z,10.22
2022-10-23T07:05:32.672Z,10.24
2022-10-23T07:07:06.567Z,10.25
2022-10-23T07:08:47.019Z,10.32
2022-10-23T07:10:48.879Z,10.30
2022-10-23T07:12:24.675Z,10.34
2022-10-23T07:14:09.927Z,10.41
2022-10-23T07:15:42.162Z,10.43
2022-10-23T07:17:19.709Z,10.50
2022-10-23T07:18:59.328Z,10.52
2022-10-23T07:20:34.234Z,10.47
2022-10-23T07:22:06.369Z,10.48
2022-10-23T07:23:44.142Z,10.57
2022-10-23T07:25:16.489Z,10.57
2022-10-23T07:28:23.018Z,10.62
2022-10-23T07:29:55.007Z,10.57
2022-10-23T07:31:28.319Z,10.55
2022-10-23T07:33:18.978Z,10.60
2022-10-23T07:35:02.010Z,10.64
2022-10-23T07:36:36.663Z,10.71
2022-10-23T07:38:08.603Z,10.79
2022-10-23T07:39:45.166Z,10.82
2022-10-23T07:41:17.507Z,10.85
2022-10-23T07:42:49.742Z,10.92
2022-10-23T07:44:24.309Z,11.01
2022-10-23T07:46:00.454Z,11.00
2022-10-23T07:47:42.653Z,10.94
2022-10-23T07:49:17.280Z,10.97
2022-10-23T07:50:49.582Z,11.07
2022-10-23T07:52:21.817Z,11.14
2022-10-23T07:54:15.675Z,11.16
2022-10-23T07:56:12.618Z,11.17
2022-10-23T07:58:13.449Z,11.27
2022-10-23T07:59:51.047Z,11.20
2022-10-23T08:01:31.092Z,11.17
2022-10-23T08:03:03.478Z,11.23
2022-10-23T08:04:37.549Z,11.29
2022-10-23T08:06:23.335Z,11.36
2022-10-23T08:07:55.553Z,11.34
2022-10-23T08:09:27.860Z,11.38
2022-10-23T08:10:59.861Z,11.45
2022-10-23T08:12:37.703Z,11.50
2022-10-23T08:14:10.301Z,11.57
2022-10-23T08:15:44.482Z,11.55
2022-10-23T08:17:34.811Z,11.59
2022-10-23T08:19:11.843Z,11.61
2022-10-23T08:20:47.235Z,11.67
2022-10-23T08:22:19.091Z,11.74
2022-10-23T08:23:55.575Z,11.76
2022-10-23T08:25:27.451Z,11.81
2022-10-23T08:27:00.091Z,11.89
2022-10-23T08:28:34.067Z,11.98
2022-10-23T08:30:07.238Z,12.02
2022-10-23T08:31:39.252Z,12.07
2022-10-23T08:33:28.486Z,12.06
2022-10-23T08:35:00.589Z,12.09
2022-10-23T08:36:36.514Z,12.11
2022-10-23T08:38:10.913Z,12.10
2022-10-23T08:39:50.105Z,12.15
2022-10-23T08:41:40.933Z,12.13
2022-10-23T08:43:25.296Z,12.22
2022-10-23T08:45:21.084Z,12.33
2022-10-23T08:47:08.649Z,12.49
2022-10-23T08:49:07.362Z,12.42
2022-10-23T08:51:13.508Z,12.41
2022-10-23T08:52:52.262Z,12.49
2022-10-23T08:54:30.798Z,12.50
2022-10-23T08:56:04.392Z,12.52
2022-10-23T08:57:41.275Z,12.53
2022-10-23T08:59:22.856Z,12.56
2022-10-23T09:00:54.876Z,12.56
2022-10-23T09:02:27.098Z,12.53
2022-10-23T09:03:59.145Z,12.56
2022-10-23T09:05:46.456Z,12.52
2022-10-23T09:07:26.976Z,12.43
2022-10-23T09:09:04.511Z,12.42
2022-10-23T09:11:05.739Z,12.44
2022-10-23T09:12:39.498Z,12.41
2022-10-23T09:14:27.783Z,12.43
2022-10-23T09:16:22.315Z,12.47
2022-10-23T09:17:57.608Z,12.57
2022-10-23T09:19:31.464Z,12.61
2022-10-23T09:21:08.243Z,12.75
2022-10-23T09:22:41.002Z,12.85
2022-10-23T09:24:17.995Z,12.88
2022-10-23T09:25:55.412Z,12.92
2022-10-23T09:27:27.334Z,12.94
2022-10-23T09:29:07.189Z,12.95
2022-10-23T09:30:40.726Z,12.99
2022-10-23T09:32:12.771Z,12.98
2022-10-23T09:33:54.638Z,12.96
2022-10-23T09:35:28.290Z,12.92
2022-10-23T09:37:04.482Z,12.86
2022-10-23T09:38:47.502Z,12.82
2022-10-23T09:40:19.451Z,12.65
2022-10-23T09:41:54.163Z,12.62
2022-10-23T09:43:29.392Z,12.58
2022-10-23T09:45:20.751Z,12.60
2022-10-23T09:46:59.030Z,12.67
2022-10-23T09:48:30.965Z,12.66
2022-10-23T09:50:02.869Z,12.58
2022-10-23T09:51:34.888Z,12.52
2022-10-23T09:53:12.087Z,12.50
2022-10-23T09:54:45.706Z,12.56
2022-10-23T09:56:24.835Z,12.57
2022-10-23T09:57:57.317Z,12.53
2022-10-23T09:59:30.074Z,12.47
2022-10-23T10:01:02.487Z,12.47
2022-10-23T10:03:14.991Z,12.39
2022-10-23T10:04:50.639Z,12.36
2022-10-23T10:06:27.534Z,12.36
2022-10-23T10:08:11.911Z,12.30
2022-10-23T10:09:43.897Z,12.32
2022-10-23T10:11:27.905Z,12.41
2022-10-23T10:13:02.074Z,12.43
2022-10-23T10:14:37.377Z,12.40
2022-10-23T10:16:09.211Z,12.46
2022-10-23T10:17:52.515Z,12.46
2022-10-23T10:19:42.617Z,12.50
2022-10-23T10:21:14.519Z,12.57
2022-10-23T10:22:52.158Z,12.66
2022-10-23T10:24:46.560Z,12.69
2022-10-23T10:26:33.643Z,12.79
2022-10-23T10:28:11.822Z,12.91
2022-10-23T10:29:46.901Z,12.92
2022-10-23T10:31:18.814Z,12.94
2022-10-23T10:32:50.791Z,12.89
2022-10-23T10:34:30.503Z,12.99
2022-10-23T10:36:07.593Z,12.88
2022-10-23T10:37:47.382Z,12.86
2022-10-23T10:39:44.455Z,12.93
2022-10-23T10:41:19.231Z,13.07
2022-10-23T10:43:09.556Z,13.06
2022-10-23T10:44:44.634Z,12.92
2022-10-23T10:46:19.372Z,12.89
2022-10-23T10:47:59.745Z,12.77
2022-10-23T10:49:38.340Z,12.67
2022-10-23T10:51:49.358Z,12.73
2022-10-23T10:53:24.226Z,12.73
2022-10-23T10:55:03.961Z,12.77
2022-10-23T10:56:38.679Z,12.81
2022-10-23T10:58:23.652Z,12.92
2022-10-23T10:59:57.605Z,12.76
2022-10-23T11:01:32.856Z,12.79
2022-10-23T11:03:11.476Z,12.91
2022-10-23T11:04:51.218Z,12.88
2022-10-23T11:06:24.458Z,12.76
2022-10-23T11:08:01.444Z,12.76
2022-10-23T11:09:33.727Z,12.81
2022-10-23T11:11:16.139Z,12.89
2022-10-23T11:12:49.109Z,13.01
2022-10-23T11:14:25.199Z,13.12
2022-10-23T11:15:59.791Z,13.28
2022-10-23T11:17:38.909Z,13.28
2022-10-23T11:19:14.443Z,13.18
2022-10-23T11:20:46.447Z,13.04
2022-10-23T11:22:37.962Z,12.90
2022-10-23T11:26:13.344Z,12.57
2022-10-23T11:28:03.672Z,12.51
2022-10-23T11:29:53.165Z,12.47
2022-10-23T11:31:44.045Z,12.46
2022-10-23T11:33:25.160Z,12.45
2022-10-23T11:34:57.026Z,12.45
2022-10-23T11:36:31.796Z,12.49
2022-10-23T11:38:09.673Z,12.47
2022-10-23T11:39:41.869Z,12.53
2022-10-23T11:41:21.122Z,12.60
2022-10-23T11:42:57.800Z,12.68
2022-10-23T11:44:29.734Z,12.64
2022-10-23T11:46:35.168Z,12.69
2022-10-23T11:48:22.083Z,12.72
2022-10-23T11:50:08.884Z,12.80
2022-10-23T11:51:41.130Z,12.79
2022-10-23T11:53:30.975Z,12.79
2022-10-23T11:55:04.442Z,12.81
2022-10-23T11:56:37.435Z,12.85
2022-10-23T11:58:18.207Z,12.79
2022-10-23T11:59:54.395Z,12.80
2022-10-23T12:01:45.610Z,12.78
2022-10-23T12:03:19.881Z,12.73
2022-10-23T12:04:52.874Z,12.77
2022-10-23T12:06:26.814Z,12.81
2022-10-23T12:08:03.507Z,12.85
2022-10-23T12:09:36.214Z,12.89
2022-10-23T12:11:27.446Z,12.95
2022-10-23T12:13:00.960Z,13.01
2022-10-23T12:14:43.965Z,13.04
2022-10-23T12:16:15.897Z,13.09
2022-10-23T12:17:48.659Z,13.11
2022-10-23T12:19:30.541Z,13.15
2022-10-23T12:21:04.646Z,13.21
2022-10-23T12:22:50.304Z,13.29
2022-10-23T12:24:25.159Z,13.12
2022-10-23T12:26:15.390Z,13.11
2022-10-23T12:28:08.888Z,13.00
2022-10-23T12:29:48.370Z,12.89
2022-10-23T12:31:35.457Z,12.88
2022-10-23T12:33:09.978Z,12.92
2022-10-23T12:35:01.039Z,12.88
2022-10-23T12:36:41.263Z,12.84
2022-10-23T12:38:24.482Z,12.84
2022-10-23T12:39:56.434Z,12.81
2022-10-23T12:41:29.347Z,12.81
2022-10-23T12:43:01.870Z,12.82
2022-10-23T12:44:33.860Z,12.88
2022-10-23T12:46:18.166Z,12.83
2022-10-23T12:47:50.980Z,12.88
2022-10-23T12:49:23.888Z,12.93
2022-10-23T12:50:56.475Z,12.88
2022-10-23T12:52:28.353Z,12.91
2022-10-23T12:54:00.850Z,12.98
2022-10-23T12:55:47.416Z,12.95
2022-10-23T12:57:27.361Z,13.01
2022-10-23T12:59:02.581Z,12.89
2022-10-23T13:00:34.521Z,12.82
2022-10-23T13:02:27.083Z,12.73
2022-10-23T13:04:13.665Z,12.77
2022-10-23T13:05:45.758Z,12.78
2022-10-23T13:07:19.632Z,12.77
2022-10-23T13:08:51.760Z,12.76
2022-10-23T13:10:52.225Z,12.82
2022-10-23T13:12:27.208Z,12.89
2022-10-23T13:13:59.412Z,12.89
2022-10-23T13:15:41.652Z,12.86
2022-10-23T13:17:13.623Z,12.89
2022-10-23T13:18:45.579Z,12.85
2022-10-23T13:20:17.466Z,12.81
2022-10-23T13:21:49.559Z,12.79
2022-10-23T13:23:24.366Z,12.80
2022-10-23T13:24:56.276Z,12.81
2022-10-23T13:26:31.116Z,12.73
2022-10-23T13:28:06.104Z,12.73
2022-10-23T13:29:42.155Z,12.73
2022-10-23T13:31:14.097Z,12.73
2022-10-23T13:32:48.280Z,12.79
2022-10-23T13:34:24.435Z,12.77
2022-10-23T13:35:58.605Z,12.80
2022-10-23T13:37:30.797Z,12.86
2022-10-23T13:39:04.983Z,12.90
2022-10-23T13:40:36.923Z,12.93
2022-10-23T13:42:12.451Z,12.93
2022-10-23T13:43:45.180Z,12.98
2022-10-23T13:45:19.505Z,12.94
2022-10-23T13:46:52.219Z,12.95
2022-10-23T13:48:24.523Z,12.99
2022-10-23T13:49:56.405Z,12.96
2022-10-23T13:51:29.279Z,12.90
2022-10-23T13:53:05.313Z,12.89
2022-10-23T13:54:37.217Z,12.87
2022-10-23T13:56:12.729Z,12.90
2022-10-23T13:57:44.931Z,12.89
2022-10-23T13:59:17.584Z,12.84
2022-10-23T14:00:50.257Z,12.84
2022-10-23T14:02:23.521Z,12.85
2022-10-23T14:03:56.614Z,12.84
2022-10-23T14:05:28.529Z,12.83
2022-10-23T14:07:00.550Z,12.85
2022-10-23T14:08:32.520Z,12.89
2022-10-23T14:10:04.812Z,12.93
2022-10-23T14:11:36.743Z,13.00
2022-10-23T14:13:08.735Z,13.06
2022-10-23T14:14:40.704Z,13.14
2022-10-23T14:16:14.206Z,13.13
2022-10-23T14:17:46.174Z,13.13
2022-10-23T14:19:18.129Z,13.21
2022-10-23T14:20:50.091Z,13.23
2022-10-23T14:22:22.094Z,13.19
2022-10-23T14:23:54.447Z,13.22
2022-10-23T14:25:26.457Z,13.22
2022-10-23T14:26:59.655Z,13.25
2022-10-23T14:28:31.737Z,13.26
2022-10-23T14:30:04.123Z,13.30
2022-10-23T14:31:36.138Z,13.36
2022-10-23T14:33:08.053Z,13.38
2022-10-23T14:34:41.560Z,13.35
2022-10-23T14:36:14.030Z,13.27
2022-10-23T14:37:46.473Z,13.27
2022-10-23T14:39:18.760Z,13.29
2022-10-23T14:40:50.783Z,13.24
2022-10-23T14:42:22.796Z,13.20
2022-10-23T14:43:55.045Z,13.21
2022-10-23T14:45:27.049Z,13.18
2022-10-23T14:46:59.863Z,13.16
2022-10-23T14:48:31.989Z,13.14
2022-10-23T14:50:04.129Z,13.15
2022-10-23T14:51:36.454Z,13.15
2022-10-23T14:53:08.401Z,13.14
2022-10-23T14:54:40.338Z,13.16
2022-10-23T14:56:12.281Z,13.19
2022-10-23T14:57:44.644Z,13.21
2022-10-23T14:59:16.867Z,13.20
2022-10-23T15:00:56.787Z,13.18
2022-10-23T15:02:28.816Z,13.20
2022-10-23T15:04:00.763Z,13.19
2022-10-23T15:05:32.727Z,13.18
2022-10-23T15:07:04.757Z,13.18
2022-10-23T15:08:36.787Z,13.15
2022-10-23T15:10:09.195Z,13.14
2022-10-23T15:11:41.237Z,13.10
2022-10-23T15:13:13.285Z,13.09
2022-10-23T15:14:45.227Z,13.10
2022-10-23T15:16:17.337Z,13.13
2022-10-23T15:17:49.364Z,13.10
2022-10-23T15:19:21.417Z,13.10
2022-10-23T15:20:53.396Z,13.10
2022-10-23T15:22:25.268Z,13.10
2022-10-23T15:23:57.187Z,13.10
2022-10-23T15:25:29.128Z,13.09
2022-10-23T15:27:02.058Z,13.05
2022-10-23T15:28:34.215Z,13.00
2022-10-23T15:30:06.396Z,12.95
2022-10-23T15:31:38.532Z,12.89
2022-10-23T15:33:10.506Z,12.82
2022-10-23T15:34:42.899Z,12.76
2022-10-23T15:36:15.118Z,12.72
2022-10-23T15:37:47.217Z,12.67
2022-10-23T15:39:24.182Z,12.63
2022-10-23T15:41:04.121Z,12.64
2022-10-23T15:42:36.313Z,12.63
2022-10-23T15:44:09.161Z,12.61
2022-10-23T15:45:41.393Z,12.57
2022-10-23T15:47:13.324Z,12.54
2022-10-23T15:48:45.243Z,12.49
2022-10-23T15:50:17.505Z,12.46
2022-10-23T15:51:49.425Z,12.46
2022-10-23T15:53:21.751Z,12.48
2022-10-23T15:54:53.719Z,12.47
2022-10-23T15:56:25.647Z,12.47
2022-10-23T15:58:01.973Z,12.51
2022-10-23T15:59:33.950Z,12.54
2022-10-23T16:01:06.641Z,12.59
2022-10-23T16:02:38.861Z,12.63
2022-10-23T16:04:10.959Z,12.68
2022-10-23T16:05:43.065Z,12.72
2022-10-23T16:07:15.191Z,12.76
2022-10-23T16:08:47.801Z,12.80
2022-10-23T16:10:19.782Z,12.83
2022-10-23T16:11:51.756Z,12.86
2022-10-23T16:13:23.687Z,12.91
2022-10-23T16:14:55.626Z,12.96
2022-10-23T16:16:27.917Z,12.98
2022-10-23T16:17:59.781Z,13.02
2022-10-23T16:19:31.670Z,13.06
2022-10-23T16:21:03.876Z,13.06
2022-10-23T16:22:35.836Z,13.07
2022-10-23T16:24:08.519Z,13.05
2022-10-23T16:25:40.406Z,13.01
2022-10-23T16:27:13.419Z,12.96
2022-10-23T16:28:47.232Z,12.93
2022-10-23T16:30:21.298Z,12.88
2022-10-23T16:31:53.889Z,12.84
2022-10-23T16:33:26.003Z,12.82
2022-10-23T16:34:57.924Z,12.83
2022-10-23T16:36:29.983Z,12.86
2022-10-23T16:38:28.278Z,12.90
2022-10-23T16:40:01.041Z,12.92
2022-10-23T16:41:33.215Z,12.95
2022-10-23T16:43:06.277Z,12.98
2022-10-23T16:44:52.021Z,13.03
2022-10-23T16:46:24.177Z,13.05
2022-10-23T16:47:56.344Z,13.11
2022-10-23T16:49:29.865Z,13.15
2022-10-23T16:51:05.483Z,13.16
2022-10-23T16:52:38.358Z,13.19
2022-10-23T16:54:10.345Z,13.22
2022-10-23T16:55:42.344Z,13.25
2022-10-23T16:57:14.364Z,13.30
2022-10-23T16:58:46.626Z,13.34
2022-10-23T17:00:22.003Z,13.36
2022-10-23T17:01:54.247Z,13.40
2022-10-23T17:03:26.439Z,13.42
2022-10-23T17:04:58.370Z,13.44
2022-10-23T17:06:32.059Z,13.45
2022-10-23T17:08:04.005Z,13.48
2022-10-23T17:09:36.128Z,13.50
2022-10-23T17:11:09.906Z,13.53
2022-10-23T17:12:41.843Z,13.54
2022-10-23T17:14:15.769Z,13.56
2022-10-23T17:15:47.672Z,13.56
2022-10-23T17:17:19.566Z,13.58
2022-10-23T17:18:51.569Z,13.59
2022-10-23T17:20:23.782Z,13.59
2022-10-23T17:21:56.260Z,13.61
2022-10-23T17:23:28.503Z,13.63
2022-10-23T17:25:00.422Z,13.63
2022-10-23T17:26:32.932Z,13.64
2022-10-23T17:28:04.910Z,13.65
2022-10-23T17:29:36.960Z,13.67
2022-10-23T17:31:19.198Z,13.66
2022-10-23T17:32:51.091Z,13.68
2022-10-23T17:34:23.411Z,13.71
2022-10-23T17:35:55.382Z,13.70
2022-10-23T17:37:27.393Z,13.71
2022-10-23T17:38:59.628Z,13.72
2022-10-23T17:40:32.999Z,13.73
2022-10-23T17:42:04.977Z,13.73
2022-10-23T17:43:37.092Z,13.74
2022-10-23T17:45:09.199Z,13.76
2022-10-23T17:46:41.204Z,13.73
2022-10-23T17:48:13.713Z,13.76
2022-10-23T17:49:46.176Z,13.75
2022-10-23T17:51:22.834Z,13.75
2022-10-23T17:52:54.708Z,13.75
2022-10-23T17:54:27.026Z,13.77
2022-10-23T17:56:02.457Z,13.78
2022-10-23T17:57:34.431Z,13.77
2022-10-23T17:59:09.381Z,13.78
2022-10-23T18:00:41.345Z,13.78
2022-10-23T18:02:13.466Z,13.80
2022-10-23T18:03:45.462Z,13.80
2022-10-23T18:05:17.411Z,13.81
2022-10-23T18:06:50.428Z,13.83
2022-10-23T18:08:22.404Z,13.83
2022-10-23T18:09:54.450Z,13.82
2022-10-23T18:11:27.951Z,13.82
2022-10-23T18:12:59.894Z,13.83
2022-10-23T18:14:37.329Z,13.83
2022-10-23T18:16:13.427Z,13.82
2022-10-23T18:17:45.766Z,13.83
2022-10-23T18:19:18.477Z,13.85
2022-10-23T18:20:50.922Z,13.85
2022-10-23T18:22:22.890Z,13.86
2022-10-23T18:23:55.052Z,13.87
2022-10-23T18:25:26.987Z,13.88
2022-10-23T18:26:59.005Z,13.89
2022-10-23T18:28:31.147Z,13.91
2022-10-23T18:30:03.165Z,13.93
2022-10-23T18:31:37.275Z,13.94
2022-10-23T18:33:09.386Z,13.92
2022-10-23T18:34:41.302Z,13.93
2022-10-23T18:36:17.422Z,13.92
2022-10-23T18:37:49.782Z,13.93
2022-10-23T18:39:23.165Z,13.93
2022-10-23T18:40:55.349Z,13.95
2022-10-23T18:42:27.263Z,13.95
2022-10-23T18:43:59.303Z,13.95
2022-10-23T18:45:31.491Z,13.97
2022-10-23T18:47:03.591Z,13.97
2022-10-23T18:48:35.881Z,14.00
2022-10-23T18:50:08.127Z,14.00
2022-10-23T18:51:40.452Z,14.00
2022-10-23T18:53:12.404Z,14.01
2022-10-23T18:54:44.301Z,14.02
2022-10-23T18:56:22.194Z,14.03
2022-10-23T18:57:54.110Z,14.03
2022-10-23T18:59:26.033Z,14.05
2022-10-23T19:00:58.087Z,14.05
2022-10-23T19:02:30.167Z,14.05
2022-10-23T19:04:02.626Z,14.08
2022-10-23T19:05:34.638Z,14.09
2022-10-23T19:07:06.684Z,14.09
2022-10-23T19:08:39.525Z,14.10
2022-10-23T19:10:15.870Z,14.10
2022-10-23T19:11:47.767Z,14.11
2022-10-23T19:13:21.085Z,14.10
2022-10-23T19:14:54.955Z,14.10
2022-10-23T19:16:26.865Z,14.11
2022-10-23T19:17:58.970Z,14.11
2022-10-23T19:19:33.950Z,14.13
2022-10-23T19:21:06.155Z,14.12
2022-10-23T19:22:41.019Z,14.12
2022-10-23T19:24:17.801Z,14.13
2022-10-23T19:25:49.771Z,14.13
2022-10-23T19:27:21.763Z,14.13
2022-10-23T19:30:30.937Z,14.13
2022-10-23T19:32:03.527Z,14.12
2022-10-23T19:33:36.201Z,14.12
2022-10-23T19:35:08.645Z,14.12
2022-10-23T19:36:40.600Z,14.12
2022-10-23T19:38:12.704Z,14.12
2022-10-23T19:39:44.667Z,14.13
2022-10-23T19:41:18.171Z,14.14
2022-10-23T19:42:50.234Z,14.14
2022-10-23T19:44:22.202Z,14.13
2022-10-23T19:45:54.109Z,14.14
2022-10-23T19:47:26.038Z,14.15
2022-10-23T19:48:57.979Z,14.13
2022-10-23T19:50:29.991Z,14.15
2022-10-23T19:52:01.882Z,14.15
2022-10-23T19:53:34.220Z,14.15
2022-10-23T19:55:06.658Z,14.15
2022-10-23T19:56:38.931Z,14.16
2022-10-23T19:58:10.887Z,14.17
2022-10-23T19:59:42.808Z,14.19
2022-10-23T20:01:15.935Z,14.18
2022-10-23T20:02:50.134Z,14.18
2022-10-23T20:04:24.768Z,14.22
2022-10-23T20:05:56.686Z,14.21
2022-10-23T20:07:28.684Z,14.21
2022-10-23T20:09:01.335Z,14.23
2022-10-23T20:10:33.235Z,14.23
2022-10-23T20:12:05.498Z,14.25
2022-10-23T20:13:37.397Z,14.25
2022-10-23T20:15:09.727Z,14.26
2022-10-23T20:16:44.796Z,14.28
2022-10-23T20:18:16.735Z,14.28
2022-10-23T20:19:48.961Z,14.29
2022-10-23T20:21:21.108Z,14.28
2022-10-23T20:22:55.442Z,14.28
2022-10-23T20:24:27.698Z,14.29
2022-10-23T20:26:07.223Z,14.29
2022-10-23T20:27:39.177Z,14.28
2022-10-23T20:29:11.402Z,14.28
2022-10-23T20:30:45.573Z,14.28
2022-10-23T20:32:17.609Z,14.30
2022-10-23T20:33:49.871Z,14.26
2022-10-23T20:35:21.869Z,14.25
2022-10-23T20:36:53.889Z,14.25
2022-10-23T20:38:26.011Z,14.23
2022-10-23T20:39:57.968Z,14.23
2022-10-23T20:41:33.065Z,14.21
2022-10-23T20:43:05.079Z,14.19
2022-10-23T20:44:37.102Z,14.19
2022-10-23T20:46:09.730Z,14.20
2022-10-23T20:47:41.902Z,14.17
2022-10-23T20:49:15.332Z,14.13
2022-10-23T20:50:47.343Z,14.11
2022-10-23T20:52:19.361Z,14.08
2022-10-23T20:53:51.716Z,14.08